createdAt,value
2023-01-25T00:00:12.035Z,100781.36
2023-01-25T00:02:41.843Z,100782.86
2023-01-25T00:05:10.432Z,100779.79
2023-01-25T00:07:39.210Z,100786.90
2023-01-25T00:10:08.202Z,100787.88
2023-01-25T00:12:36.887Z,100786.48
2023-01-25T00:15:06.489Z,100787.81
2023-01-25T00:17:35.284Z,100786.79
2023-01-25T00:20:04.489Z,100785.58
2023-01-25T00:22:32.956Z,100782.40
2023-01-25T00:25:03.380Z,100776.25
2023-01-25T00:27:32.162Z,100772.62
2023-01-25T00:30:00.660Z,100774.67
2023-01-25T00:32:37.012Z,100772.59
2023-01-25T00:35:10.445Z,100773.76
2023-01-25T00:37:50.085Z,100760.89
2023-01-25T00:40:20.932Z,100756.81
2023-01-25T00:42:49.561Z,100759.52
2023-01-25T00:45:18.043Z,100754.35
2023-01-25T00:47:46.416Z,100757.11
2023-01-25T00:50:15.817Z,100750.28
2023-01-25T00:52:44.092Z,100754.30
2023-01-25T00:55:12.467Z,100754.71
2023-01-25T00:57:40.950Z,100755.28
2023-01-25T01:00:10.345Z,100758.17
2023-01-25T01:02:41.081Z,100759.95
2023-01-25T01:05:10.587Z,100756.70
2023-01-25T01:07:39.229Z,100755.52
2023-01-25T01:10:08.464Z,100753.51
2023-01-25T01:12:51.583Z,100751.71
2023-01-25T01:15:19.961Z,100748.27
2023-01-25T01:17:48.334Z,100748.05
2023-01-25T01:20:18.058Z,100746.14
2023-01-25T01:22:46.624Z,100743.83
2023-01-25T01:25:15.110Z,100734.15
2023-01-25T01:27:43.688Z,100735.23
2023-01-25T01:30:12.689Z,100736.59
2023-01-25T01:32:41.575Z,100735.07
2023-01-25T01:35:10.503Z,100732.38
2023-01-25T01:37:42.451Z,100728.31
2023-01-25T01:40:14.689Z,100725.90
2023-01-25T01:43:01.503Z,100726.64
2023-01-25T01:45:49.496Z,100726.45
2023-01-25T01:48:38.589Z,100725.48
2023-01-25T01:51:45.786Z,100721.02
2023-01-25T01:54:26.542Z,100724.77
2023-01-25T01:57:06.594Z,100720.30
2023-01-25T01:59:41.727Z,100716.15
2023-01-25T02:02:10.259Z,100716.23
2023-01-25T02:04:39.196Z,100718.17
2023-01-25T02:07:15.777Z,100722.36
2023-01-25T02:09:47.109Z,100716.67
2023-01-25T02:12:16.113Z,100709.46
2023-01-25T02:14:52.261Z,100710.86
2023-01-25T02:17:28.743Z,100705.74
2023-01-25T02:20:06.631Z,100703.46
2023-01-25T02:22:54.971Z,100703.08
2023-01-25T02:25:23.353Z,100699.80
2023-01-25T02:28:16.767Z,100692.98
2023-01-25T02:30:46.277Z,100695.30
2023-01-25T02:33:14.800Z,100698.67
2023-01-25T02:35:46.653Z,100699.27
2023-01-25T02:38:18.925Z,100699.00
2023-01-25T02:41:00.918Z,100698.39
2023-01-25T02:43:31.853Z,100700.50
2023-01-25T02:46:15.338Z,100698.59
2023-01-25T02:48:46.836Z,100700.23
2023-01-25T02:51:15.271Z,100702.40
2023-01-25T02:53:44.615Z,100697.62
2023-01-25T02:56:13.192Z,100692.73
2023-01-25T02:58:41.670Z,100694.02
2023-01-25T03:01:12.251Z,100688.80
2023-01-25T03:03:42.828Z,100690.55
2023-01-25T03:06:11.215Z,100693.80
2023-01-25T03:08:40.615Z,100692.93
2023-01-25T03:11:09.390Z,100690.59
2023-01-25T03:13:38.235Z,100690.23
2023-01-25T03:16:08.868Z,100695.19
2023-01-25T03:18:37.803Z,100692.26
2023-01-25T03:21:17.957Z,100687.64
2023-01-25T03:23:47.405Z,100686.81
2023-01-25T03:26:22.387Z,100686.38
2023-01-25T03:29:01.309Z,100682.56
2023-01-25T03:31:29.849Z,100683.92
2023-01-25T03:33:58.572Z,100681.91
2023-01-25T03:36:29.760Z,100683.19
2023-01-25T03:38:58.809Z,100683.40
2023-01-25T03:41:27.696Z,100682.09
2023-01-25T03:43:58.633Z,100681.38
2023-01-25T03:46:27.337Z,100680.05
2023-01-25T03:48:56.412Z,100680.04
2023-01-25T03:51:25.094Z,100679.99
2023-01-25T03:53:54.614Z,100682.83
2023-01-25T03:56:23.387Z,100676.98
2023-01-25T03:59:18.283Z,100673.53
2023-01-25T04:01:47.374Z,100674.11
2023-01-25T04:04:16.266Z,100669.08
2023-01-25T04:06:46.278Z,100669.00
2023-01-25T04:09:15.270Z,100666.67
2023-01-25T04:11:51.746Z,100668.01
2023-01-25T04:14:31.847Z,100668.84
2023-01-25T04:17:08.563Z,100672.52
2023-01-25T04:20:01.431Z,100674.52
2023-01-25T04:22:35.961Z,100673.18
2023-01-25T04:25:05.333Z,100669.85
2023-01-25T04:27:34.321Z,100670.04
2023-01-25T04:30:10.380Z,100664.27
2023-01-25T04:32:38.948Z,100668.00
2023-01-25T04:35:17.168Z,100667.38
2023-01-25T04:37:56.196Z,100662.73
2023-01-25T04:40:26.752Z,100660.95
2023-01-25T04:42:55.505Z,100660.42
2023-01-25T04:45:25.726Z,100660.50
2023-01-25T04:48:02.670Z,100659.52
2023-01-25T04:50:31.416Z,100664.58
2023-01-25T04:53:00.584Z,100665.07
2023-01-25T04:55:32.102Z,100663.69
2023-01-25T04:58:02.867Z,100665.26
2023-01-25T05:00:32.598Z,100669.47
2023-01-25T05:03:01.474Z,100667.23
2023-01-25T05:05:30.557Z,100667.56
2023-01-25T05:07:59.965Z,100668.95
2023-01-25T05:10:29.157Z,100669.00
2023-01-25T05:13:18.932Z,100665.21
2023-01-25T05:15:49.005Z,100668.03
2023-01-25T05:18:17.785Z,100668.58
2023-01-25T05:20:46.211Z,100668.44
2023-01-25T05:23:15.203Z,100671.33
2023-01-25T05:26:02.537Z,100672.70
2023-01-25T05:28:32.131Z,100676.01
2023-01-25T05:31:11.360Z,100670.59
2023-01-25T05:33:40.661Z,100674.09
2023-01-25T05:36:09.036Z,100670.21
2023-01-25T05:38:38.332Z,100668.45
2023-01-25T05:41:08.864Z,100666.81
2023-01-25T05:43:37.344Z,100670.40
2023-01-25T05:46:08.541Z,100670.23
2023-01-25T05:48:37.266Z,100665.00
2023-01-25T05:51:06.368Z,100667.58
2023-01-25T05:53:35.705Z,100668.80
2023-01-25T05:56:07.955Z,100666.85
2023-01-25T05:58:37.543Z,100666.06
2023-01-25T06:01:06.931Z,100666.58
2023-01-25T06:03:41.832Z,100665.14
2023-01-25T06:06:10.857Z,100668.11
2023-01-25T06:08:39.774Z,100667.40
2023-01-25T06:11:12.359Z,100663.48
2023-01-25T06:13:46.256Z,100664.48
2023-01-25T06:16:15.940Z,100664.84
2023-01-25T06:18:44.548Z,100665.63
2023-01-25T06:21:37.377Z,100665.65
2023-01-25T06:24:09.300Z,100665.76
2023-01-25T06:26:37.813Z,100664.60
2023-01-25T06:29:07.314Z,100661.92
2023-01-25T06:31:36.206Z,100662.79
2023-01-25T06:34:06.743Z,100659.53
2023-01-25T06:36:35.741Z,100657.87
2023-01-25T06:39:05.249Z,100654.42
2023-01-25T06:41:35.545Z,100658.71
2023-01-25T06:44:05.055Z,100654.14
2023-01-25T06:46:34.040Z,100654.84
2023-01-25T06:49:03.535Z,100652.30
2023-01-25T06:51:32.021Z,100654.10
2023-01-25T06:54:02.745Z,100652.75
2023-01-25T06:56:33.171Z,100649.23
2023-01-25T06:59:02.269Z,100650.89
2023-01-25T07:01:31.114Z,100649.02
2023-01-25T07:03:59.942Z,100647.17
2023-01-25T07:06:33.437Z,100648.11
2023-01-25T07:09:06.531Z,100646.45
2023-01-25T07:11:35.300Z,100651.35
2023-01-25T07:14:04.318Z,100646.11
2023-01-25T07:16:37.212Z,100644.79
2023-01-25T07:19:13.064Z,100641.27
2023-01-25T07:21:43.871Z,100642.14
2023-01-25T07:24:16.248Z,100639.37
2023-01-25T07:26:47.002Z,100640.23
2023-01-25T07:29:16.372Z,100635.40
2023-01-25T07:31:51.897Z,100632.53
2023-01-25T07:34:22.489Z,100630.20
2023-01-25T07:36:53.483Z,100628.65
2023-01-25T07:39:21.892Z,100626.71
2023-01-25T07:41:50.450Z,100629.57
2023-01-25T07:44:21.600Z,100625.98
2023-01-25T07:46:54.160Z,100622.64
2023-01-25T07:49:22.436Z,100622.53
2023-01-25T07:51:52.665Z,100620.02
2023-01-25T07:54:21.036Z,100623.63
2023-01-25T07:56:50.030Z,100625.22
2023-01-25T08:04:53.989Z,100624.74
2023-01-25T08:07:24.392Z,100620.66
2023-01-25T08:09:53.795Z,100621.86
2023-01-25T08:12:22.880Z,100624.16
2023-01-25T08:14:51.260Z,100626.52
2023-01-25T08:17:19.857Z,100627.48
2023-01-25T08:19:48.322Z,100620.77
2023-01-25T08:22:17.003Z,100619.95
2023-01-25T08:24:45.519Z,100619.49
2023-01-25T08:27:16.519Z,100622.81
2023-01-25T08:29:45.205Z,100618.69
2023-01-25T08:32:13.792Z,100620.92
2023-01-25T08:34:42.485Z,100621.48
2023-01-25T08:37:15.338Z,100624.80
2023-01-25T08:39:50.109Z,100627.27
2023-01-25T08:42:21.537Z,100626.77
2023-01-25T08:44:50.107Z,100623.38
2023-01-25T08:47:18.482Z,100626.29
2023-01-25T08:49:46.954Z,100626.20
2023-01-25T08:52:16.409Z,100630.07
2023-01-25T08:54:45.166Z,100631.33
2023-01-25T08:57:13.633Z,100627.53
2023-01-25T08:59:42.559Z,100633.23
2023-01-25T09:02:14.146Z,100631.86
2023-01-25T09:04:42.878Z,100633.02
2023-01-25T09:07:11.212Z,100633.43
2023-01-25T09:09:39.612Z,100635.73
2023-01-25T09:12:09.724Z,100633.98
2023-01-25T09:14:40.457Z,100636.30
2023-01-25T09:17:10.077Z,100630.41
2023-01-25T09:19:38.543Z,100629.95
2023-01-25T09:22:07.194Z,100630.20
2023-01-25T09:24:37.396Z,100625.73
2023-01-25T09:27:06.491Z,100627.71
2023-01-25T09:29:35.905Z,100620.40
2023-01-25T09:32:08.667Z,100616.15
2023-01-25T09:34:54.318Z,100610.09
2023-01-25T09:37:27.593Z,100607.34
2023-01-25T09:39:56.436Z,100603.38
2023-01-25T09:42:57.274Z,100599.11
2023-01-25T09:45:36.004Z,100587.44
2023-01-25T09:48:04.287Z,100585.41
2023-01-25T09:51:40.872Z,100579.90
2023-01-25T09:54:10.750Z,100574.66
2023-01-25T09:56:39.662Z,100571.27
2023-01-25T09:59:17.256Z,100564.30
2023-01-25T10:01:54.124Z,100558.06
2023-01-25T10:04:26.938Z,100554.91
2023-01-25T10:07:03.150Z,100551.73
2023-01-25T10:09:34.702Z,100551.95
2023-01-25T10:12:14.282Z,100546.31
2023-01-25T10:14:43.981Z,100545.69
2023-01-25T10:17:37.828Z,100538.42
2023-01-25T10:20:15.047Z,100536.17
2023-01-25T10:22:51.731Z,100530.71
2023-01-25T10:25:53.513Z,100522.75
2023-01-25T10:28:31.155Z,100520.20
2023-01-25T10:31:07.636Z,100519.59
2023-01-25T10:33:42.346Z,100514.47
2023-01-25T10:36:17.839Z,100513.45
2023-01-25T10:38:47.558Z,100515.09
2023-01-25T10:41:25.274Z,100511.13
2023-01-25T10:44:13.726Z,100506.90
2023-01-25T10:46:44.596Z,100507.58
2023-01-25T10:49:39.301Z,100505.17
2023-01-25T10:52:20.214Z,100511.36
2023-01-25T10:54:52.486Z,100500.42
2023-01-25T10:57:21.500Z,100503.52
2023-01-25T10:59:51.310Z,100497.61
2023-01-25T11:02:42.077Z,100489.57
2023-01-25T11:05:18.789Z,100491.45
2023-01-25T11:07:47.889Z,100484.54
2023-01-25T11:10:35.889Z,100481.52
2023-01-25T11:13:13.793Z,100478.55
2023-01-25T11:16:02.014Z,100477.10
2023-01-25T11:18:35.440Z,100474.68
2023-01-25T11:21:10.872Z,100470.24
2023-01-25T11:23:39.471Z,100469.20
2023-01-25T11:26:15.877Z,100465.22
2023-01-25T11:28:45.830Z,100468.17
2023-01-25T11:31:21.738Z,100459.54
2023-01-25T11:33:50.978Z,100457.72
2023-01-25T11:36:39.435Z,100461.95
2023-01-25T11:39:26.975Z,100458.98
2023-01-25T11:42:51.665Z,100460.94
2023-01-25T11:45:45.771Z,100454.31
2023-01-25T11:48:35.333Z,100450.98
2023-01-25T11:51:07.467Z,100448.55
2023-01-25T11:53:59.497Z,100443.73
2023-01-25T11:56:38.214Z,100442.21
2023-01-25T11:59:30.664Z,100442.50
2023-01-25T12:02:32.921Z,100438.18
2023-01-25T12:05:21.855Z,100438.98
2023-01-25T12:08:12.080Z,100430.95
2023-01-25T12:10:50.762Z,100436.04
2023-01-25T12:13:31.164Z,100436.30
2023-01-25T12:16:02.495Z,100430.08
2023-01-25T12:18:34.269Z,100431.72
2023-01-25T12:21:31.769Z,100429.73
2023-01-25T12:24:28.761Z,100430.83
2023-01-25T12:27:11.378Z,100433.89
2023-01-25T12:33:08.905Z,100419.33
2023-01-25T12:35:54.158Z,100420.64
2023-01-25T12:38:48.358Z,100420.45
2023-01-25T12:41:30.744Z,100417.64
2023-01-25T12:44:10.076Z,100418.43
2023-01-25T12:47:05.592Z,100417.55
2023-01-25T12:49:35.324Z,100419.57
2023-01-25T12:52:06.978Z,100414.98
2023-01-25T12:54:38.457Z,100415.00
2023-01-25T12:57:16.406Z,100418.63
2023-01-25T12:59:47.246Z,100418.80
2023-01-25T13:02:26.682Z,100414.14
2023-01-25T13:05:02.740Z,100409.90
2023-01-25T13:07:37.341Z,100401.53
2023-01-25T13:10:36.912Z,100402.30
2023-01-25T13:13:24.810Z,100398.13
2023-01-25T13:15:59.318Z,100396.66
2023-01-25T13:18:34.205Z,100396.59
2023-01-25T13:21:06.756Z,100392.38
2023-01-25T13:23:50.919Z,100391.67
2023-01-25T13:26:22.722Z,100391.48
2023-01-25T13:28:54.615Z,100392.76
2023-01-25T13:31:51.008Z,100392.55
2023-01-25T13:34:42.733Z,100390.15
2023-01-25T13:37:21.277Z,100390.80
2023-01-25T13:39:54.569Z,100383.11
2023-01-25T13:42:25.693Z,100382.69
2023-01-25T13:45:00.046Z,100381.29
2023-01-25T13:47:30.487Z,100374.95
2023-01-25T13:50:15.297Z,100380.35
2023-01-25T13:53:00.260Z,100384.77
2023-01-25T13:55:38.049Z,100373.75
2023-01-25T14:01:20.003Z,100376.64
2023-01-25T14:03:50.309Z,100378.89
2023-01-25T14:06:39.269Z,100375.02
2023-01-25T14:09:16.672Z,100370.84
2023-01-25T14:11:56.706Z,100370.88
2023-01-25T14:14:30.100Z,100370.52
2023-01-25T14:17:22.377Z,100366.54
2023-01-25T14:19:56.759Z,100365.19
2023-01-25T14:22:27.727Z,100364.63
2023-01-25T14:25:12.445Z,100364.92
2023-01-25T14:27:55.172Z,100359.65
2023-01-25T14:30:34.360Z,100359.72
2023-01-25T14:33:15.834Z,100358.40
2023-01-25T14:35:58.589Z,100354.33
2023-01-25T14:38:37.467Z,100357.39
2023-01-25T14:41:23.612Z,100357.17
2023-01-25T14:43:54.527Z,100353.21
2023-01-25T14:46:34.717Z,100350.75
2023-01-25T14:49:27.100Z,100348.64
2023-01-25T14:52:14.352Z,100346.46
2023-01-25T14:54:55.548Z,100343.25
2023-01-25T14:57:33.514Z,100339.52
2023-01-25T15:00:19.387Z,100340.23
2023-01-25T15:02:57.947Z,100337.80
2023-01-25T15:05:31.035Z,100336.96
2023-01-25T15:08:08.741Z,100337.80
2023-01-25T15:10:38.541Z,100335.60
2023-01-25T15:13:15.309Z,100327.95
2023-01-25T15:15:55.537Z,100335.48
2023-01-25T15:18:49.557Z,100337.31
2023-01-25T15:21:25.424Z,100334.04
2023-01-25T15:23:54.559Z,100334.90
2023-01-25T15:26:27.364Z,100332.72
2023-01-25T15:28:57.942Z,100330.55
2023-01-25T15:31:30.844Z,100332.02
2023-01-25T15:34:00.422Z,100328.00
2023-01-25T15:36:29.801Z,100326.64
2023-01-25T15:38:58.260Z,100324.30
2023-01-25T15:41:26.842Z,100324.84
2023-01-25T15:43:56.478Z,100325.44
2023-01-25T15:46:26.686Z,100322.14
2023-01-25T15:48:55.591Z,100319.33
2023-01-25T15:51:24.453Z,100317.89
2023-01-25T15:53:53.027Z,100317.39
2023-01-25T15:56:29.503Z,100317.06
2023-01-25T15:59:01.766Z,100315.77
2023-01-25T16:01:30.289Z,100313.54
2023-01-25T16:04:16.026Z,100313.83
2023-01-25T16:06:51.717Z,100312.25
2023-01-25T16:09:23.644Z,100307.83
2023-01-25T16:11:56.727Z,100302.73
2023-01-25T16:14:33.398Z,100299.59
2023-01-25T16:17:04.194Z,100303.20
2023-01-25T16:19:33.013Z,100301.22
2023-01-25T16:22:01.275Z,100297.60
2023-01-25T16:24:30.294Z,100297.89
2023-01-25T16:26:59.287Z,100292.80
2023-01-25T16:29:28.275Z,100289.20
2023-01-25T16:31:56.998Z,100286.08
2023-01-25T16:34:26.164Z,100285.73
2023-01-25T16:36:54.835Z,100283.50
2023-01-25T16:39:26.858Z,100281.67
2023-01-25T16:41:56.302Z,100280.17
2023-01-25T16:44:25.699Z,100281.53
2023-01-25T16:46:55.462Z,100276.72
2023-01-25T16:49:27.887Z,100273.61
2023-01-25T16:51:57.385Z,100277.75
2023-01-25T16:54:26.102Z,100278.55
2023-01-25T16:56:55.170Z,100281.38
2023-01-25T16:59:24.568Z,100281.35
2023-01-25T17:01:52.947Z,100283.76
2023-01-25T17:04:21.535Z,100286.02
2023-01-25T17:06:50.880Z,100282.77
2023-01-25T17:09:25.636Z,100276.89
2023-01-25T17:11:54.957Z,100278.77
2023-01-25T17:14:23.327Z,100279.23
2023-01-25T17:16:53.940Z,100279.75
2023-01-25T17:19:22.518Z,100275.91
2023-01-25T17:21:51.737Z,100276.38
2023-01-25T17:24:22.003Z,100280.70
2023-01-25T17:26:51.344Z,100275.67
2023-01-25T17:29:19.641Z,100275.98
2023-01-25T17:31:48.195Z,100276.45
2023-01-25T17:34:22.012Z,100274.31
2023-01-25T17:36:50.778Z,100271.61
2023-01-25T17:39:19.846Z,100271.42
2023-01-25T17:41:49.351Z,100267.88
2023-01-25T17:44:22.200Z,100269.02
2023-01-25T17:46:50.772Z,100267.02
2023-01-25T17:49:19.443Z,100268.44
2023-01-25T17:51:50.992Z,100272.26
2023-01-25T17:54:20.090Z,100273.29
2023-01-25T17:56:48.566Z,100270.96
2023-01-25T17:59:18.676Z,100264.69
2023-01-25T18:01:48.270Z,100265.66
2023-01-25T18:04:20.727Z,100265.96
2023-01-25T18:06:50.670Z,100266.95
2023-01-25T18:09:20.713Z,100267.23
2023-01-25T18:11:49.368Z,100261.13
2023-01-25T18:14:19.179Z,100263.27
2023-01-25T18:16:48.377Z,100263.96
2023-01-25T18:19:17.060Z,100263.28
2023-01-25T18:21:47.075Z,100263.52
2023-01-25T18:24:35.203Z,100264.44
2023-01-25T18:27:12.805Z,100269.29
2023-01-25T18:29:45.798Z,100274.25
2023-01-25T18:32:15.605Z,100274.40
2023-01-25T18:34:44.284Z,100270.92
2023-01-25T18:37:18.496Z,100266.39
2023-01-25T18:39:48.719Z,100264.37
2023-01-25T18:42:18.225Z,100263.14
2023-01-25T18:44:48.736Z,100263.38
2023-01-25T18:47:19.063Z,100263.02
2023-01-25T18:49:49.503Z,100259.22
2023-01-25T18:52:19.018Z,100256.46
2023-01-25T18:54:47.580Z,100252.02
2023-01-25T18:57:16.693Z,100250.45
2023-01-25T18:59:45.475Z,100246.54
2023-01-25T19:02:15.067Z,100244.96
2023-01-25T19:04:43.556Z,100244.23
2023-01-25T19:07:12.698Z,100240.69
2023-01-25T19:09:44.000Z,100236.90
2023-01-25T19:12:12.459Z,100236.93
2023-01-25T19:14:40.946Z,100233.30
2023-01-25T19:17:09.528Z,100235.02
2023-01-25T19:19:41.177Z,100234.64
2023-01-25T19:22:09.555Z,100232.27
2023-01-25T19:24:38.342Z,100234.86
2023-01-25T19:27:07.226Z,100229.98
2023-01-25T19:29:37.048Z,100229.39
2023-01-25T19:32:05.720Z,100232.00
2023-01-25T19:34:34.513Z,100232.64
2023-01-25T19:37:02.987Z,100233.69
2023-01-25T19:39:32.901Z,100231.64
2023-01-25T19:42:04.346Z,100230.36
2023-01-25T19:44:33.133Z,100228.81
2023-01-25T19:47:01.712Z,100231.20
2023-01-25T19:49:30.504Z,100227.65
2023-01-25T19:51:59.086Z,100220.71
2023-01-25T19:54:27.867Z,100222.00
2023-01-25T19:56:59.320Z,100219.35
2023-01-25T19:59:29.236Z,100215.85
2023-01-25T20:01:57.726Z,100216.35
2023-01-25T20:04:28.030Z,100214.20
2023-01-25T20:06:56.610Z,100207.70
2023-01-25T20:09:28.305Z,100213.62
2023-01-25T20:11:57.677Z,100210.23
2023-01-25T20:14:26.668Z,100211.80
2023-01-25T20:16:55.151Z,100216.02
2023-01-25T20:19:24.641Z,100217.94
2023-01-25T20:21:53.116Z,100212.02
2023-01-25T20:24:21.777Z,100212.00
2023-01-25T20:26:51.510Z,100208.94
2023-01-25T20:29:21.733Z,100207.61
2023-01-25T20:31:50.432Z,100204.28
2023-01-25T20:34:21.235Z,100199.54
2023-01-25T20:36:50.495Z,100198.23
2023-01-25T20:39:20.585Z,100191.80
2023-01-25T20:41:51.755Z,100182.86
2023-01-25T20:44:20.390Z,100183.07
2023-01-25T20:46:50.348Z,100180.84
2023-01-25T20:49:18.983Z,100183.23
2023-01-25T20:51:47.765Z,100178.58
2023-01-25T20:54:16.974Z,100179.17
2023-01-25T20:56:48.223Z,100174.17
2023-01-25T20:59:18.229Z,100175.98
2023-01-25T21:01:50.646Z,100173.08
2023-01-25T21:04:19.380Z,100171.11
2023-01-25T21:06:47.856Z,100170.13
2023-01-25T21:09:16.339Z,100170.36
2023-01-25T21:11:45.126Z,100169.45
2023-01-25T21:14:14.115Z,100172.97
2023-01-25T21:16:44.545Z,100176.22
2023-01-25T21:19:13.256Z,100173.87
2023-01-25T21:21:41.700Z,100173.77
2023-01-25T21:24:10.204Z,100171.96
2023-01-25T21:26:38.982Z,100168.86
2023-01-25T21:29:08.298Z,100167.08
2023-01-25T21:31:38.961Z,100164.99
2023-01-25T21:34:09.428Z,100166.50
2023-01-25T21:36:38.111Z,100164.55
2023-01-25T21:39:06.583Z,100163.39
2023-01-25T21:41:35.683Z,100161.23
2023-01-25T21:44:23.211Z,100159.03
2023-01-25T21:47:19.543Z,100158.64
2023-01-25T21:49:58.887Z,100150.13
2023-01-25T21:52:27.618Z,100147.80
2023-01-25T21:54:56.032Z,100145.90
2023-01-25T21:57:24.720Z,100142.99
2023-01-25T21:59:54.405Z,100143.73
2023-01-25T22:02:23.199Z,100146.00
2023-01-25T22:04:51.789Z,100139.80
2023-01-25T22:07:20.379Z,100138.80
2023-01-25T22:09:49.771Z,100137.77
2023-01-25T22:12:18.043Z,100137.01
2023-01-25T22:14:46.733Z,100138.58
2023-01-25T22:17:16.540Z,100137.74
2023-01-25T22:19:45.754Z,100134.69
2023-01-25T22:22:14.219Z,100132.39
2023-01-25T22:24:43.412Z,100130.48
2023-01-25T22:27:17.833Z,100131.92
2023-01-25T22:29:46.512Z,100130.87
2023-01-25T22:32:14.894Z,100128.10
2023-01-25T22:34:43.372Z,100129.33
2023-01-25T22:37:12.253Z,100121.68
2023-01-25T22:39:40.948Z,100119.13
2023-01-25T22:42:09.206Z,100118.42
2023-01-25T22:44:37.492Z,100114.54
2023-01-25T22:47:06.274Z,100113.83
2023-01-25T22:49:35.375Z,100114.05
2023-01-25T22:52:04.052Z,100110.42
2023-01-25T22:54:36.630Z,100109.08
2023-01-25T22:57:05.108Z,100108.16
2023-01-25T22:59:33.895Z,100111.52
2023-01-25T23:02:02.377Z,100113.11
2023-01-25T23:04:31.720Z,100109.68
2023-01-25T23:07:12.231Z,100107.66
2023-01-25T23:09:40.917Z,100102.33
2023-01-25T23:12:09.497Z,100100.59
2023-01-25T23:14:47.602Z,100105.34
2023-01-25T23:17:34.513Z,100105.48
2023-01-25T23:20:04.974Z,100099.49
2023-01-25T23:22:33.323Z,100096.18
2023-01-25T23:25:01.816Z,100099.34
2023-01-25T23:27:30.476Z,100093.86
2023-01-25T23:29:59.162Z,100091.45
2023-01-25T23:32:27.843Z,100090.46
2023-01-25T23:34:56.838Z,100089.36
2023-01-25T23:37:25.314Z,100083.89
2023-01-25T23:39:54.353Z,100082.95
2023-01-25T23:42:22.785Z,100085.15
2023-01-25T23:44:51.979Z,100085.23
2023-01-25T23:47:20.267Z,100075.27
2023-01-25T23:49:48.741Z,100068.85
2023-01-25T23:52:17.210Z,100073.98
2023-01-25T23:54:45.588Z,100072.20
2023-01-25T23:57:14.068Z,100071.25
2023-01-25T23:59:42.546Z,100067.31
